Time;durP1;ratioP1;P1;durP2;ratioP2;P2;SDS_P1;SDS_P2;PMS_P1;PMS_P2;Temp;Humidity;BMP_temperature;BMP_pressure;BME280_temperature;BME280_humidity;BME280_pressure;Samples;Min_cycle;Max_cycle;Signal;HPM_P1;HPM_P2
2022/01/21 00:00:47;;;;;;;10.20;4.78;;;;;;;;;;8434613;28;20044;-74
2022/01/21 00:04:56;;;;;;;4.40;3.15;;;;;;;;;;8434153;28;20093;-74
2022/01/21 00:08:59;;;;;;;7.57;4.13;;;;;;;;;;8433855;28;20051;-73
2022/01/21 00:13:01;;;;;;;8.05;3.90;;;;;;;;;;8433784;28;20048;-74
2022/01/21 00:17:04;;;;;;;9.80;4.70;;;;;;;;;;8433633;28;20071;-75
2022/01/21 00:34:08;;;;;;;7.90;4.38;;;;;;;;;;8433042;28;20040;-75
2022/01/21 00:38:14;;;;;;;9.80;4.43;;;;;;;;;;8432905;28;20048;-73
2022/01/21 00:42:34;;;;;;;7.85;3.65;;;;;;;;;;8433359;28;20476;-74
2022/01/21 00:46:37;;;;;;;8.25;3.83;;;;;;;;;;8433155;28;20411;-74
2022/01/21 00:50:39;;;;;;;9.45;4.18;;;;;;;;;;8432907;28;20055;-74
2022/01/21 00:54:43;;;;;;;9.07;4.50;;;;;;;;;;8432465;28;20412;-74
2022/01/21 00:58:46;;;;;;;9.65;4.35;;;;;;;;;;8432777;28;20077;-73
2022/01/21 01:02:49;;;;;;;9.40;3.90;;;;;;;;;;8447951;28;20053;-74
2022/01/21 01:06:52;;;;;;;10.93;5.10;;;;;;;;;;8465749;28;20047;-75
2022/01/21 01:11:18;;;;;;;10.82;4.63;;;;;;;;;;8459845;28;20039;-73
2022/01/21 01:20:00;;;;;;;8.57;4.32;;;;;;;;;;8446920;28;20452;-74
2022/01/21 01:27:36;;;;;;;7.40;3.75;;;;;;;;;;8448221;28;20069;-73
2022/01/21 01:28:28;;;;;;;8.13;4.10;;;;;;;;;;8450738;28;20051;-74
2022/01/21 01:32:31;;;;;;;10.35;4.70;;;;;;;;;;8447342;28;20051;-77
2022/01/21 01:36:34;;;;;;;10.75;4.10;;;;;;;;;;8455542;28;20491;-77
2022/01/21 01:40:41;;;;;;;8.27;4.32;;;;;;;;;;8456908;28;20044;-77
2022/01/21 01:49:31;;;;;;;8.68;3.33;;;;;;;;;;8450064;28;20039;-74
2022/01/21 01:53:37;;;;;;;6.25;3.53;;;;;;;;;;8453128;28;20051;-75
2022/01/21 01:57:40;;;;;;;10.90;4.18;;;;;;;;;;8451622;28;20043;-72
2022/01/21 02:01:51;;;;;;;9.98;3.38;;;;;;;;;;8450420;28;20499;-73
2022/01/21 02:05:54;;;;;;;8.37;3.97;;;;;;;;;;8449720;28;20039;-73
2022/01/21 02:09:56;;;;;;;6.68;4.25;;;;;;;;;;8448658;28;20043;-73
2022/01/21 02:14:01;;;;;;;7.50;3.28;;;;;;;;;;8446497;28;20043;-73
2022/01/21 02:22:29;;;;;;;7.57;2.67;;;;;;;;;;8453140;28;20048;-73
2022/01/21 02:26:32;;;;;;;8.23;3.45;;;;;;;;;;8456177;28;20047;-75
2022/01/21 02:30:34;;;;;;;7.75;2.85;;;;;;;;;;8427167;28;20457;-74
2022/01/21 02:34:37;;;;;;;15.07;4.03;;;;;;;;;;8427350;28;20092;-73
2022/01/21 02:38:42;;;;;;;6.65;2.78;;;;;;;;;;8427701;28;20484;-74
2022/01/21 02:42:45;;;;;;;9.02;3.00;;;;;;;;;;8429074;28;20052;-74
2022/01/21 02:46:54;;;;;;;5.82;2.78;;;;;;;;;;8429707;28;20048;-75
2022/01/21 02:50:57;;;;;;;4.88;2.60;;;;;;;;;;8429716;28;20048;-73
2022/01/21 02:55:01;;;;;;;7.03;3.38;;;;;;;;;;8430177;28;20044;-75
2022/01/21 02:59:05;;;;;;;6.07;2.92;;;;;;;;;;8430047;28;20044;-75
2022/01/21 03:03:07;;;;;;;7.95;3.17;;;;;;;;;;8429989;28;20488;-80
2022/01/21 03:07:10;;;;;;;7.70;2.83;;;;;;;;;;8429483;28;20044;-75
2022/01/21 03:11:15;;;;;;;3.80;2.60;;;;;;;;;;8429753;28;20407;-73
2022/01/21 03:15:17;;;;;;;7.45;2.92;;;;;;;;;;8429430;28;20691;-75
2022/01/21 03:19:20;;;;;;;6.90;3.08;;;;;;;;;;8419542;28;20043;-75
2022/01/21 03:23:25;;;;;;;5.53;2.20;;;;;;;;;;8427831;28;20123;-73
2022/01/21 03:27:29;;;;;;;7.13;2.60;;;;;;;;;;8441484;28;20491;-73
2022/01/21 03:31:33;;;;;;;6.05;2.47;;;;;;;;;;8456045;28;20157;-76
2022/01/21 03:35:36;;;;;;;7.72;2.67;;;;;;;;;;8469306;28;20043;-74
2022/01/21 03:39:39;;;;;;;10.38;3.25;;;;;;;;;;8463364;28;20048;-76
2022/01/21 03:43:43;;;;;;;8.75;2.90;;;;;;;;;;8460944;28;20035;-73
2022/01/21 03:47:46;;;;;;;7.72;2.90;;;;;;;;;;8467660;28;20047;-75
2022/01/21 03:51:49;;;;;;;6.25;2.10;;;;;;;;;;8467200;28;20051;-74
2022/01/21 03:55:52;;;;;;;11.68;3.10;;;;;;;;;;8463242;28;20134;-74
2022/01/21 03:59:56;;;;;;;7.38;3.08;;;;;;;;;;8455025;28;20063;-73
2022/01/21 04:03:58;;;;;;;4.15;2.50;;;;;;;;;;8435931;28;20048;-72
2022/01/21 04:08:01;;;;;;;4.45;2.58;;;;;;;;;;8434197;28;20044;-77
2022/01/21 04:12:04;;;;;;;5.10;2.58;;;;;;;;;;8433882;28;20093;-73
2022/01/21 04:16:08;;;;;;;5.60;2.67;;;;;;;;;;8434210;28;20048;-75
2022/01/21 04:20:13;;;;;;;9.38;3.05;;;;;;;;;;8434129;28;20491;-75
2022/01/21 04:24:16;;;;;;;10.02;3.30;;;;;;;;;;8433617;28;20055;-73
2022/01/21 04:28:18;;;;;;;4.57;2.50;;;;;;;;;;8455235;28;20044;-75
2022/01/21 04:32:22;;;;;;;5.45;3.63;;;;;;;;;;8445270;28;20055;-75
2022/01/21 04:36:25;;;;;;;6.68;3.20;;;;;;;;;;8433145;28;20051;-72
2022/01/21 04:40:30;;;;;;;12.75;5.03;;;;;;;;;;8450565;28;20099;-79
2022/01/21 04:48:54;;;;;;;5.85;2.97;;;;;;;;;;8466525;28;20043;-73
2022/01/21 04:52:57;;;;;;;6.78;2.45;;;;;;;;;;8466267;28;20089;-73
2022/01/21 04:57:00;;;;;;;9.50;2.92;;;;;;;;;;8466302;28;20047;-74
2022/01/21 05:01:04;;;;;;;5.30;2.90;;;;;;;;;;8466016;28;20484;-78
2022/01/21 05:05:09;;;;;;;5.43;2.97;;;;;;;;;;8466298;28;20483;-75
2022/01/21 05:09:12;;;;;;;11.55;3.80;;;;;;;;;;8466250;28;20044;-74
2022/01/21 05:13:18;;;;;;;9.48;4.18;;;;;;;;;;8465528;28;20044;-76
2022/01/21 05:17:22;;;;;;;6.80;3.25;;;;;;;;;;8465637;28;20073;-73
2022/01/21 05:21:26;;;;;;;10.05;4.05;;;;;;;;;;8456746;28;20495;-73
2022/01/21 05:25:29;;;;;;;11.93;5.15;;;;;;;;;;8455423;28;20040;-74
2022/01/21 05:29:33;;;;;;;13.80;5.22;;;;;;;;;;8431145;28;20059;-73
2022/01/21 05:33:36;;;;;;;5.55;3.45;;;;;;;;;;8451232;28;20048;-73
2022/01/21 05:37:41;;;;;;;10.32;4.45;;;;;;;;;;8465324;28;20528;-73
2022/01/21 05:41:45;;;;;;;8.52;4.05;;;;;;;;;;8464776;28;20183;-74
2022/01/21 05:50:09;;;;;;;5.72;3.38;;;;;;;;;;8464059;28;20054;-73
2022/01/21 05:54:13;;;;;;;9.65;3.15;;;;;;;;;;8464810;28;20047;-74
2022/01/21 05:58:16;;;;;;;7.63;3.95;;;;;;;;;;8464358;28;20047;-72
2022/01/21 06:02:19;;;;;;;11.98;5.43;;;;;;;;;;8464220;28;20048;-72
2022/01/21 06:06:21;;;;;;;11.23;4.30;;;;;;;;;;8464175;28;20054;-76
2022/01/21 06:10:25;;;;;;;9.35;3.80;;;;;;;;;;8464389;28;20487;-75
2022/01/21 06:14:28;;;;;;;16.25;6.93;;;;;;;;;;8464015;28;20054;-72
2022/01/21 06:18:30;;;;;;;14.30;3.47;;;;;;;;;;8464326;28;20058;-72
2022/01/21 06:22:33;;;;;;;11.43;3.90;;;;;;;;;;8464311;28;20399;-73
2022/01/21 06:26:38;;;;;;;9.43;2.95;;;;;;;;;;8463683;28;20051;-73
2022/01/21 06:30:40;;;;;;;8.80;3.58;;;;;;;;;;8430417;28;20108;-74
2022/01/21 06:34:43;;;;;;;9.23;3.08;;;;;;;;;;8430050;28;20044;-73
2022/01/21 06:38:45;;;;;;;9.40;3.25;;;;;;;;;;8429886;28;20040;-74
2022/01/21 06:42:50;;;;;;;4.25;2.53;;;;;;;;;;8429806;28;20048;-73
2022/01/21 06:46:53;;;;;;;9.38;2.58;;;;;;;;;;8429958;28;20040;-73
2022/01/21 06:50:56;;;;;;;7.93;2.53;;;;;;;;;;8430089;28;20067;-73
2022/01/21 06:54:59;;;;;;;4.43;2.40;;;;;;;;;;8429350;28;20544;-72
2022/01/21 06:59:04;;;;;;;6.38;3.00;;;;;;;;;;8429757;28;20396;-72
2022/01/21 07:03:07;;;;;;;7.43;2.92;;;;;;;;;;8436203;28;20484;-73
2022/01/21 07:07:10;;;;;;;6.18;3.00;;;;;;;;;;8435846;28;20052;-73
2022/01/21 07:11:13;;;;;;;10.05;2.90;;;;;;;;;;8435827;28;20534;-73
2022/01/21 07:15:19;;;;;;;8.88;3.47;;;;;;;;;;8434790;28;20040;-76
2022/01/21 07:19:21;;;;;;;9.02;3.45;;;;;;;;;;8429194;28;20048;-74
2022/01/21 07:23:24;;;;;;;7.28;3.65;;;;;;;;;;8435497;28;20051;-73
2022/01/21 07:27:26;;;;;;;13.73;4.15;;;;;;;;;;8441531;28;20056;-73
2022/01/21 07:31:31;;;;;;;13.07;4.38;;;;;;;;;;8468942;28;20047;-73
2022/01/21 07:35:33;;;;;;;8.48;3.60;;;;;;;;;;8469277;28;20515;-75
2022/01/21 07:39:36;;;;;;;13.00;5.10;;;;;;;;;;8469153;28;20375;-75
2022/01/21 07:43:39;;;;;;;11.45;4.57;;;;;;;;;;8469046;28;20433;-73
2022/01/21 07:47:43;;;;;;;11.93;5.40;;;;;;;;;;8468445;28;20074;-73
2022/01/21 07:51:46;;;;;;;13.07;4.07;;;;;;;;;;8468703;28;20044;-74
2022/01/21 07:55:50;;;;;;;13.73;5.85;;;;;;;;;;8459074;28;20051;-72
2022/01/21 07:59:53;;;;;;;11.13;4.15;;;;;;;;;;8414314;28;20043;-72
2022/01/21 08:03:58;;;;;;;12.43;6.28;;;;;;;;;;8434196;28;20523;-72
2022/01/21 08:08:01;;;;;;;15.63;5.65;;;;;;;;;;8434470;28;20472;-74
2022/01/21 08:12:05;;;;;;;11.55;5.25;;;;;;;;;;8433189;28;20051;-74
2022/01/21 08:16:09;;;;;;;11.52;4.32;;;;;;;;;;8433762;28;20048;-73
2022/01/21 08:20:13;;;;;;;9.45;4.25;;;;;;;;;;8433393;28;20106;-73
2022/01/21 08:24:15;;;;;;;10.52;4.43;;;;;;;;;;8433503;28;20054;-73
2022/01/21 08:28:19;;;;;;;7.32;4.50;;;;;;;;;;8433220;28;20469;-73
2022/01/21 08:32:22;;;;;;;10.30;4.28;;;;;;;;;;8433331;28;20552;-73
2022/01/21 08:36:28;;;;;;;9.45;3.95;;;;;;;;;;8433127;28;20488;-73
2022/01/21 08:40:30;;;;;;;13.80;5.55;;;;;;;;;;8432730;28;20052;-73
2022/01/21 08:44:35;;;;;;;13.13;5.00;;;;;;;;;;8432899;28;20055;-73
2022/01/21 08:48:38;;;;;;;14.15;4.82;;;;;;;;;;8433377;28;20055;-79
2022/01/21 08:52:43;;;;;;;12.75;4.63;;;;;;;;;;8433302;28;20048;-73
2022/01/21 08:56:47;;;;;;;11.63;5.05;;;;;;;;;;8447330;28;20159;-73
2022/01/21 09:00:50;;;;;;;8.95;3.90;;;;;;;;;;8456343;28;20114;-75
2022/01/21 09:04:54;;;;;;;14.65;4.05;;;;;;;;;;8465896;28;20048;-79
2022/01/21 09:08:59;;;;;;;8.68;3.50;;;;;;;;;;8465796;28;20050;-74
2022/01/21 09:13:01;;;;;;;12.27;3.83;;;;;;;;;;8449227;28;20088;-73
2022/01/21 09:17:05;;;;;;;11.98;5.05;;;;;;;;;;8462933;28;20100;-72
2022/01/21 09:21:07;;;;;;;20.40;8.25;;;;;;;;;;8451624;28;20476;-73
2022/01/21 09:25:12;;;;;;;15.52;5.28;;;;;;;;;;8454402;28;20036;-76
2022/01/21 09:29:15;;;;;;;10.10;5.30;;;;;;;;;;8463113;28;20076;-73
2022/01/21 09:33:18;;;;;;;8.55;5.00;;;;;;;;;;8460769;28;20047;-73
2022/01/21 09:37:21;;;;;;;17.27;5.80;;;;;;;;;;8460468;28;20139;-72
2022/01/21 09:41:29;;;;;;;13.05;5.13;;;;;;;;;;8451194;28;20513;-73
2022/01/21 09:45:32;;;;;;;13.13;5.50;;;;;;;;;;8439525;28;20052;-74
2022/01/21 09:49:40;;;;;;;8.63;4.97;;;;;;;;;;8457311;28;20051;-73
2022/01/21 09:53:46;;;;;;;10.80;5.43;;;;;;;;;;8430799;28;20474;-73
2022/01/21 09:57:52;;;;;;;15.00;6.55;;;;;;;;;;8447882;28;20126;-74
2022/01/21 10:02:00;;;;;;;14.10;5.97;;;;;;;;;;8452561;28;20038;-73
2022/01/21 10:06:06;;;;;;;11.13;5.38;;;;;;;;;;8460707;28;20099;-74
2022/01/21 10:10:16;;;;;;;13.60;6.00;;;;;;;;;;8458654;28;20138;-73
2022/01/21 10:14:25;;;;;;;12.48;6.07;;;;;;;;;;8451433;28;20054;-74
2022/01/21 10:18:28;;;;;;;15.15;5.78;;;;;;;;;;8441193;28;20056;-77
2022/01/21 10:22:31;;;;;;;14.50;5.65;;;;;;;;;;8454816;28;20043;-73
2022/01/21 10:26:35;;;;;;;15.07;5.80;;;;;;;;;;8460513;28;20483;-73
2022/01/21 10:31:18;;;;;;;17.35;7.75;;;;;;;;;;8452611;28;20047;-73
2022/01/21 10:35:29;;;;;;;17.05;9.15;;;;;;;;;;8459180;28;20097;-72
2022/01/21 10:39:35;;;;;;;68.07;32.90;;;;;;;;;;8458934;28;20036;-73
2022/01/21 10:43:38;;;;;;;18.30;8.77;;;;;;;;;;8457802;28;20048;-73
2022/01/21 10:47:53;;;;;;;12.02;6.32;;;;;;;;;;8436003;28;20546;-73
2022/01/21 10:51:57;;;;;;;15.60;7.60;;;;;;;;;;8432810;28;20090;-73
2022/01/21 10:56:12;;;;;;;21.65;8.52;;;;;;;;;;8441194;28;20054;-72
2022/01/21 11:00:16;;;;;;;33.60;14.83;;;;;;;;;;8443270;28;20127;-72
2022/01/21 11:04:22;;;;;;;40.88;17.27;;;;;;;;;;8435508;28;20055;-73
2022/01/21 11:08:28;;;;;;;35.60;16.35;;;;;;;;;;8435786;28;20051;-73
2022/01/21 11:12:36;;;;;;;28.77;11.45;;;;;;;;;;8452403;28;20081;-72
2022/01/21 11:16:43;;;;;;;14.55;6.55;;;;;;;;;;8466903;28;20040;-73
2022/01/21 11:20:55;;;;;;;13.05;5.18;;;;;;;;;;8465635;28;20048;-73
2022/01/21 11:25:03;;;;;;;14.48;6.47;;;;;;;;;;8433942;28;20040;-73
2022/01/21 11:29:11;;;;;;;18.27;6.78;;;;;;;;;;8434699;28;20048;-72
2022/01/21 11:33:15;;;;;;;51.60;20.40;;;;;;;;;;8434350;28;20066;-73
2022/01/21 11:37:19;;;;;;;46.53;17.63;;;;;;;;;;8434362;28;20051;-73
2022/01/21 11:41:24;;;;;;;56.63;17.17;;;;;;;;;;8458552;28;20044;-72
2022/01/21 11:45:43;;;;;;;34.97;13.20;;;;;;;;;;8442181;28;20048;-72
2022/01/21 11:49:56;;;;;;;37.03;12.57;;;;;;;;;;8445578;28;20093;-72
2022/01/21 11:54:03;;;;;;;143.70;40.50;;;;;;;;;;8467314;28;20043;-73
2022/01/21 11:58:15;;;;;;;101.63;32.17;;;;;;;;;;8466626;28;20066;-72
2022/01/21 12:02:26;;;;;;;20.90;8.07;;;;;;;;;;8461525;28;20048;-73
2022/01/21 12:06:34;;;;;;;95.13;31.85;;;;;;;;;;8455913;28;20047;-73
2022/01/21 12:10:43;;;;;;;30.90;12.48;;;;;;;;;;8466397;28;20483;-73
2022/01/21 12:14:52;;;;;;;20.38;8.77;;;;;;;;;;8455321;28;20499;-72
2022/01/21 12:19:19;;;;;;;145.32;35.25;;;;;;;;;;8439910;28;20047;-72
2022/01/21 12:23:31;;;;;;;35.90;9.82;;;;;;;;;;8466295;28;20044;-73
2022/01/21 12:27:52;;;;;;;29.45;10.30;;;;;;;;;;8466805;28;20047;-72
2022/01/21 12:32:12;;;;;;;25.75;9.02;;;;;;;;;;8461308;28;20061;-72
2022/01/21 12:36:25;;;;;;;62.50;22.23;;;;;;;;;;8441596;28;20480;-72
2022/01/21 12:40:41;;;;;;;23.95;10.30;;;;;;;;;;8443654;28;20067;-72
2022/01/21 12:44:55;;;;;;;45.75;14.60;;;;;;;;;;8432403;28;20036;-73
2022/01/21 12:49:03;;;;;;;19.35;7.00;;;;;;;;;;8432309;28;20067;-72
2022/01/21 12:53:23;;;;;;;16.83;7.72;;;;;;;;;;8432573;28;20052;-73
2022/01/21 12:57:33;;;;;;;36.67;14.13;;;;;;;;;;8430611;28;20487;-73
2022/01/21 13:01:49;;;;;;;33.78;12.20;;;;;;;;;;8447213;28;20483;-72
2022/01/21 13:06:06;;;;;;;42.08;16.27;;;;;;;;;;8463593;28;20379;-72
2022/01/21 13:10:22;;;;;;;43.25;13.85;;;;;;;;;;8460612;28;20048;-73
2022/01/21 13:14:34;;;;;;;56.80;21.20;;;;;;;;;;8463943;28;20070;-72
2022/01/21 13:18:42;;;;;;;69.70;20.52;;;;;;;;;;8461640;28;20039;-72
2022/01/21 13:22:46;;;;;;;33.03;13.82;;;;;;;;;;8445896;28;20058;-73
2022/01/21 13:26:52;;;;;;;47.63;18.75;;;;;;;;;;8453686;28;20083;-74
2022/01/21 13:31:05;;;;;;;29.30;11.77;;;;;;;;;;8443669;28;20035;-72
2022/01/21 13:35:13;;;;;;;33.20;11.25;;;;;;;;;;8450296;28;20487;-79
2022/01/21 13:39:19;;;;;;;31.00;12.23;;;;;;;;;;8435047;28;20066;-73
2022/01/21 13:43:25;;;;;;;20.15;8.35;;;;;;;;;;8430315;28;20044;-73
2022/01/21 13:47:34;;;;;;;17.13;6.88;;;;;;;;;;8430873;28;20469;-74
2022/01/21 13:51:38;;;;;;;25.85;11.35;;;;;;;;;;8430521;28;20559;-78
2022/01/21 13:55:46;;;;;;;14.13;6.65;;;;;;;;;;8429989;28;20056;-73
2022/01/21 13:59:52;;;;;;;22.55;9.65;;;;;;;;;;8430246;28;20051;-73
2022/01/21 14:04:13;;;;;;;20.50;8.40;;;;;;;;;;8429969;28;20065;-74
2022/01/21 14:08:21;;;;;;;24.77;9.82;;;;;;;;;;8459588;28;20046;-73
2022/01/21 14:12:24;;;;;;;22.30;7.55;;;;;;;;;;8457816;28;20043;-73
2022/01/21 14:16:30;;;;;;;24.65;11.50;;;;;;;;;;8441328;28;20044;-72
2022/01/21 14:20:35;;;;;;;16.70;8.35;;;;;;;;;;8439800;28;20040;-72
2022/01/21 14:24:54;;;;;;;17.58;7.43;;;;;;;;;;8449627;28;20479;-72
2022/01/21 14:29:03;;;;;;;26.08;10.55;;;;;;;;;;8460334;28;20051;-72
2022/01/21 14:33:20;;;;;;;21.00;9.30;;;;;;;;;;8463344;28;20051;-73
2022/01/21 14:37:34;;;;;;;26.60;10.60;;;;;;;;;;8462968;28;20044;-77
2022/01/21 14:41:52;;;;;;;21.48;6.93;;;;;;;;;;8457783;28;20135;-74
2022/01/21 14:46:10;;;;;;;26.25;10.07;;;;;;;;;;8453929;28;20071;-82
2022/01/21 14:50:24;;;;;;;156.82;42.05;;;;;;;;;;8439704;28;20127;-73
2022/01/21 14:54:30;;;;;;;50.28;16.77;;;;;;;;;;8429736;28;20051;-74
2022/01/21 14:58:48;;;;;;;30.77;9.90;;;;;;;;;;8428778;28;20131;-74
2022/01/21 15:03:11;;;;;;;23.40;8.43;;;;;;;;;;8428562;28;20054;-74
2022/01/21 15:07:26;;;;;;;24.70;8.88;;;;;;;;;;8440124;28;20043;-74
2022/01/21 15:11:56;;;;;;;24.98;10.05;;;;;;;;;;8455582;28;20122;-79
2022/01/21 15:16:18;;;;;;;54.00;17.17;;;;;;;;;;8450448;28;20048;-74
2022/01/21 15:20:36;;;;;;;25.27;7.35;;;;;;;;;;8435390;28;20071;-73
2022/01/21 15:24:57;;;;;;;24.58;10.52;;;;;;;;;;8435175;28;20487;-73
2022/01/21 15:29:08;;;;;;;26.52;10.18;;;;;;;;;;8434405;28;20139;-74
2022/01/21 15:33:21;;;;;;;;;;;;;;;;;;8435197;28;20536;-71
2022/01/21 15:37:33;;;;;;;90.40;26.80;;;;;;;;;;8434640;28;19927;-73
2022/01/21 15:41:42;;;;;;;163.07;39.55;;;;;;;;;;8434632;28;20054;-73
2022/01/21 15:45:55;;;;;;;54.67;15.63;;;;;;;;;;8434244;28;20492;-74
2022/01/21 15:50:15;;;;;;;103.25;27.92;;;;;;;;;;8433458;28;20050;-73
2022/01/21 15:54:25;;;;;;;45.17;13.77;;;;;;;;;;8434436;28;20048;-75
2022/01/21 15:58:30;;;;;;;26.17;9.68;;;;;;;;;;8455904;28;20130;-74
2022/01/21 16:02:34;;;;;;;37.22;13.30;;;;;;;;;;8465492;28;20510;-72
2022/01/21 16:06:40;;;;;;;47.40;16.85;;;;;;;;;;8451701;28;20088;-74
2022/01/21 16:10:44;;;;;;;83.28;25.65;;;;;;;;;;8447655;28;20058;-72
2022/01/21 16:14:48;;;;;;;53.50;15.60;;;;;;;;;;8450209;28;20044;-72
2022/01/21 16:18:51;;;;;;;53.05;16.10;;;;;;;;;;8450115;28;20115;-74
2022/01/21 16:22:56;;;;;;;27.23;10.23;;;;;;;;;;8454373;28;20061;-72
2022/01/21 16:26:59;;;;;;;37.13;10.93;;;;;;;;;;8455544;28;20043;-73
2022/01/21 16:31:03;;;;;;;43.53;15.55;;;;;;;;;;8448214;28;20433;-73
2022/01/21 16:35:08;;;;;;;27.33;9.70;;;;;;;;;;8450036;28;20423;-72
2022/01/21 16:39:16;;;;;;;40.40;16.75;;;;;;;;;;8446891;28;20178;-72
2022/01/21 16:43:18;;;;;;;45.22;19.05;;;;;;;;;;8431574;28;20067;-72
2022/01/21 16:47:22;;;;;;;37.65;13.05;;;;;;;;;;8458206;28;20124;-76
2022/01/21 16:51:25;;;;;;;42.17;16.45;;;;;;;;;;8447590;28;20043;-76
2022/01/21 16:55:30;;;;;;;32.97;10.50;;;;;;;;;;8448598;28;20047;-74
2022/01/21 16:59:33;;;;;;;39.88;12.60;;;;;;;;;;8432310;28;20043;-74
2022/01/21 17:03:38;;;;;;;28.70;9.80;;;;;;;;;;8447739;28;20194;-76
2022/01/21 17:07:43;;;;;;;33.47;11.95;;;;;;;;;;8453709;28;20122;-73
2022/01/21 17:11:51;;;;;;;119.43;40.75;;;;;;;;;;8449014;28;20052;-74
2022/01/21 17:15:54;;;;;;;32.50;13.57;;;;;;;;;;8435808;28;20055;-78
2022/01/21 17:20:03;;;;;;;53.83;19.27;;;;;;;;;;8445703;28;20050;-73
2022/01/21 17:24:07;;;;;;;38.30;13.15;;;;;;;;;;8459762;28;20071;-74
2022/01/21 17:28:12;;;;;;;41.63;15.13;;;;;;;;;;8461552;28;20129;-73
2022/01/21 17:32:15;;;;;;;28.52;11.65;;;;;;;;;;8461965;28;20448;-75
2022/01/21 17:36:19;;;;;;;23.65;9.63;;;;;;;;;;8460936;28;20395;-73
2022/01/21 17:40:26;;;;;;;18.50;9.07;;;;;;;;;;8460362;28;20040;-76
2022/01/21 17:44:31;;;;;;;19.67;5.90;;;;;;;;;;8458611;28;20039;-73
2022/01/21 17:48:36;;;;;;;14.30;6.70;;;;;;;;;;8459222;28;20122;-73
2022/01/21 17:52:41;;;;;;;19.08;7.28;;;;;;;;;;8461341;28;20040;-74
2022/01/21 17:56:48;;;;;;;19.00;7.53;;;;;;;;;;8461642;28;20554;-81
2022/01/21 18:00:57;;;;;;;22.48;7.93;;;;;;;;;;8460756;28;20104;-81
2022/01/21 18:05:01;;;;;;;21.63;6.85;;;;;;;;;;8459546;28;20495;-79
2022/01/21 18:09:08;;;;;;;23.63;8.38;;;;;;;;;;8461253;28;20044;-76
2022/01/21 18:13:17;;;;;;;26.08;9.02;;;;;;;;;;8459993;28;20403;-73
2022/01/21 18:17:27;;;;;;;27.88;11.52;;;;;;;;;;8457055;28;20043;-75
2022/01/21 18:21:30;;;;;;;24.40;9.48;;;;;;;;;;8447771;28;20089;-73
2022/01/21 18:25:33;;;;;;;21.45;8.82;;;;;;;;;;8439912;28;20093;-73
2022/01/21 18:29:37;;;;;;;23.13;8.90;;;;;;;;;;8438612;28;20056;-72
2022/01/21 18:33:41;;;;;;;27.42;11.20;;;;;;;;;;8439661;28;20426;-73
2022/01/21 18:37:46;;;;;;;28.40;11.07;;;;;;;;;;8454833;28;20444;-72
2022/01/21 18:41:50;;;;;;;29.63;10.45;;;;;;;;;;8460243;28;20449;-72
2022/01/21 18:45:55;;;;;;;29.02;9.02;;;;;;;;;;8462086;28;20059;-73
2022/01/21 18:50:01;;;;;;;19.63;7.95;;;;;;;;;;8459546;28;20172;-75
2022/01/21 18:54:04;;;;;;;28.83;10.80;;;;;;;;;;8440539;28;20044;-73
2022/01/21 18:58:08;;;;;;;21.30;9.70;;;;;;;;;;8435936;28;20499;-72
2022/01/21 19:02:11;;;;;;;22.63;10.13;;;;;;;;;;8435843;28;20051;-74
2022/01/21 19:06:17;;;;;;;22.35;9.25;;;;;;;;;;8438626;28;20513;-75
2022/01/21 19:10:22;;;;;;;60.40;19.00;;;;;;;;;;8469453;28;20047;-74
2022/01/21 19:14:25;;;;;;;31.10;13.40;;;;;;;;;;8468848;28;20074;-74
2022/01/21 19:18:28;;;;;;;134.10;37.03;;;;;;;;;;8450649;28;20061;-74
2022/01/21 19:22:44;;;;;;;75.70;22.60;;;;;;;;;;8439301;28;20051;-73
2022/01/21 19:27:09;;;;;;;38.40;15.27;;;;;;;;;;8467385;28;20544;-74
2022/01/21 19:31:35;;;;;;;29.88;12.68;;;;;;;;;;8467662;28;20043;-74
2022/01/21 19:35:49;;;;;;;27.63;13.25;;;;;;;;;;8468638;28;20540;-74
2022/01/21 19:40:01;;;;;;;47.97;20.48;;;;;;;;;;8468423;28;20044;-73
2022/01/21 19:44:09;;;;;;;43.88;19.75;;;;;;;;;;8468159;28;20047;-74
2022/01/21 19:48:36;;;;;;;31.50;12.65;;;;;;;;;;8467910;28;20067;-74
2022/01/21 19:52:57;;;;;;;25.13;9.70;;;;;;;;;;8465314;28;20093;-74
2022/01/21 19:57:34;;;;;;;40.80;13.50;;;;;;;;;;8460555;28;20134;-74
2022/01/21 20:02:16;;;;;;;27.70;11.13;;;;;;;;;;8460491;28;20042;-73
2022/01/21 20:11:12;;;;;;;47.15;19.55;;;;;;;;;;8424604;28;20051;-73
2022/01/21 20:15:31;;;;;;;36.63;13.80;;;;;;;;;;8454899;28;20048;-74
2022/01/21 20:19:35;;;;;;;34.88;12.80;;;;;;;;;;8466143;28;20481;-73
2022/01/21 20:23:40;;;;;;;35.67;13.85;;;;;;;;;;8467311;28;20093;-74
2022/01/21 20:27:43;;;;;;;72.72;26.08;;;;;;;;;;8457224;28;20059;-72
2022/01/21 20:31:50;;;;;;;42.60;17.48;;;;;;;;;;8450091;28;20059;-71
2022/01/21 20:36:03;;;;;;;31.67;12.48;;;;;;;;;;8449777;28;20105;-71
2022/01/21 20:40:17;;;;;;;19.33;7.10;;;;;;;;;;8448815;28;20060;-72
2022/01/21 20:44:26;;;;;;;28.02;9.65;;;;;;;;;;8450091;28;20063;-73
2022/01/21 20:48:31;;;;;;;26.83;9.75;;;;;;;;;;8448724;28;20067;-74
2022/01/21 20:52:34;;;;;;;23.25;8.48;;;;;;;;;;8450026;28;20545;-72
2022/01/21 20:56:38;;;;;;;23.27;9.07;;;;;;;;;;8448873;28;20130;-72
2022/01/21 21:00:42;;;;;;;27.88;10.43;;;;;;;;;;8448663;28;20059;-72
2022/01/21 21:04:48;;;;;;;31.67;12.95;;;;;;;;;;8448597;28;20035;-72
2022/01/21 21:08:59;;;;;;;20.55;8.30;;;;;;;;;;8458047;28;20063;-72
2022/01/21 21:13:04;;;;;;;26.80;9.35;;;;;;;;;;8466338;28;20047;-72
2022/01/21 21:17:33;;;;;;;22.60;9.80;;;;;;;;;;8465175;28;20047;-71
2022/01/21 21:26:14;;;;;;;20.45;7.05;;;;;;;;;;8465424;28;20050;-72
2022/01/21 21:30:28;;;;;;;43.05;13.65;;;;;;;;;;8465090;28;20047;-71
2022/01/21 22:14:20;;;;;;;13.50;6.00;;;;;;;;;;8464379;28;20058;-76
2022/01/21 22:22:35;;;;;;;21.00;8.20;;;;;;;;;;8463199;28;20043;-73
2022/01/21 22:27:31;;;;;;;21.63;7.38;;;;;;;;;;8461107;28;20607;-74
2022/01/21 23:02:38;;;;;;;21.52;9.55;;;;;;;;;;8293755;28;20137;-73
2022/01/21 23:06:48;;;;;;;13.38;7.55;;;;;;;;;;8293765;28;20046;-74
2022/01/21 23:10:51;;;;;;;20.20;7.90;;;;;;;;;;8293710;28;20398;-73
2022/01/21 23:14:56;;;;;;;18.30;8.20;;;;;;;;;;8293804;28;20061;-73
2022/01/21 23:18:58;;;;;;;20.40;8.10;;;;;;;;;;8293645;28;20217;-74
2022/01/21 23:23:03;;;;;;;17.98;6.85;;;;;;;;;;8329291;28;20097;-74
2022/01/21 23:27:11;;;;;;;15.80;6.38;;;;;;;;;;8429457;28;20065;-74
2022/01/21 23:31:15;;;;;;;18.17;7.50;;;;;;;;;;8429197;28;20044;-73
2022/01/21 23:35:21;;;;;;;19.13;7.60;;;;;;;;;;8428998;28;20056;-73
2022/01/21 23:43:51;;;;;;;14.65;6.43;;;;;;;;;;8412471;28;20134;-73
2022/01/21 23:48:03;;;;;;;19.00;6.85;;;;;;;;;;8434910;28;20041;-73
2022/01/21 23:52:07;;;;;;;16.88;7.55;;;;;;;;;;8434832;28;20052;-74
2022/01/21 23:56:12;;;;;;;20.83;7.00;;;;;;;;;;8434745;28;20044;-72
